| Date | Time | Temp. (oF) | Dew Point (oF) | Rel. Hum. (%) | Press. (in.) | Wind Dir. | Wind Speed (mph) | Hourly Rainfall (in.) |
|
|---|---|---|---|---|---|---|---|---|---|
| 1 | 03/10 | 00:00 | 21 | 11 | 67 | 29.85 | S | 1 | 0.00 |
| 2 | 03/09 | 23:00 | 22 | 11 | 64 | 29.87 | SSW | 2 | 0.00 |
| 3 | 03/09 | 22:00 | 23 | 11 | 60 | 29.88 | SSW | 6 | 0.00 |
| 4 | 03/09 | 21:00 | 24 | 10 | 56 | 29.87 | S | 3 | 0.00 |
| 5 | 03/09 | 20:00 | 24 | 8 | 52 | 29.87 | WNW | 9 | 0.00 |
| 6 | 03/09 | 19:00 | 25 | 7 | 47 | 29.86 | SW | 7 | 0.00 |
| 7 | 03/09 | 18:00 | 27 | 7 | 44 | 29.84 | W | 9 | 0.00 |
| 8 | 03/09 | 17:00 | 28 | 8 | 43 | 29.81 | W | 12 | 0.00 |
| 9 | 03/09 | 16:00 | 29 | 7 | 39 | 29.80 | W | 15 | 0.00 |
| 10 | 03/09 | 15:00 | 30 | 7 | 38 | 29.78 | W | 15 | 0.00 |
| 11 | 03/09 | 14:00 | 30 | 9 | 41 | 29.79 | WSW | 13 | 0.00 |
| 12 | 03/09 | 13:00 | 28 | 8 | 43 | 29.82 | SW | 8 | 0.00 |
| 13 | 03/09 | 12:00 | 28 | 11 | 50 | 29.85 | WNW | 11 | 0.00 |
| 14 | miss | miss | miss | miss | miss | miss | miss | miss | |
| 15 | 03/09 | 10:00 | 23 | 8 | 53 | 29.87 | WSW | 19 | 0.00 |
| 16 | 03/09 | 09:00 | 21 | 8 | 59 | 29.89 | WSW | 8 | 0.00 |
| 17 | 03/09 | 08:00 | 19 | 8 | 62 | 29.88 | W | 8 | 0.00 |
| 18 | 03/09 | 07:00 | 16 | 5 | 64 | 29.86 | SW | 4 | 0.00 |
| 19 | 03/09 | 06:00 | 16 | 5 | 62 | 29.85 | WNW | 7 | 0.00 |
| 20 | 03/09 | 05:00 | 15 | 4 | 62 | 29.84 | WSW | 4 | 0.00 |
| 21 | 03/09 | 04:00 | 15 | 3 | 61 | 29.81 | NW | 8 | 0.00 |
| 22 | 03/09 | 03:00 | 15 | 2 | 58 | 29.80 | W | 15 | 0.00 |
| 23 | 03/09 | 02:00 | 16 | 2 | 55 | 29.79 | W | 11 | 0.00 |
| 24 | 03/09 | 01:00 | 16 | 1 | 53 | 29.78 | NW | 10 | 0.00 |